Danville, VA

9:07 AM EDT on September 26, 2016 (GMT -0400)
Brentwood Community | | Change Station

Elev 548 ft 36.62 °N, 79.40 °W | Updated 10 seconds ago

Overcast
Overcast
67.3 °F
Feels Like 67.3 °F
N
0.0
Wind Variable Wind from NW

Today
High -- | Low -- °F
--% Chance of Precip.
Yesterday
High -- | Low -- °F
Precip. -- in
Pressure 30.11 in
Visibility 10.0 miles
Clouds Overcast 2300 ft
Dew Point 62 °F
Humidity 84%
Rainfall 0.00 in
Snow Depth Not available.
7:09 AM 7:07 PM
Waning Crescent, 19% visible
METAR KDAN 261253Z AUTO VRB03KT 10SM OVC023 19/16 A3013 RMK AO2 RAB1158E07 SLP195 P0000 T01890161
Pressure 30.11 in
Visibility 10.0 miles
Clouds Overcast 2300 ft
Dew Point 62 °F
Humidity 84%
Rainfall 0.00 in
Snow Depth Not available.
7:09 AM 7:07 PM
Waning Crescent, 19% visible
METAR KDAN 261253Z AUTO VRB03KT 10SM OVC023 19/16 A3013 RMK AO2 RAB1158E07 SLP195 P0000 T01890161

10-Day Weather Forecast

Almanac

Astronomy

Sep. 26, 2016 Rise Set
Actual Time
Civil Twilight
Nautical Twilight
Astronomical Twilight
Moon
Length of Visible Light
Length of Day
Tomorrow will be .
, % of the Moon is Illuminated

Today's Extremes

State Highs State Lows

Community

WunderPhotos

Upload Photos

1,941,871 photos uploaded!

WunderBlog® & News

Nearby

Air Quality

  Air Quality AQ Index Pollutant
Not available.

Snow Depth

Station Depth Elevation

Earthquake Activity

City Distance Mag. Time & Date
Minimum magnitude displayed is 2.5.

Coastal Water Temperatures

Place Temperature

Stations

Nearby Weather Stations

Station Location Temp. Windchill Dew Point Humidity Wind Precip. Elev Updated Type
                   

Watches & Warnings

There are currently no watches in effect.